createdAt,value
2022-09-11T00:03:57.735Z,29.00
2022-09-11T00:09:02.140Z,30.13
2022-09-11T00:14:04.517Z,36.28
2022-09-11T00:19:09.603Z,30.23
2022-09-11T00:24:12.538Z,33.20
2022-09-11T00:29:14.911Z,33.42
2022-09-11T00:34:17.459Z,33.25
2022-09-11T00:39:19.775Z,25.95
2022-09-11T00:44:25.044Z,24.02
2022-09-11T00:49:34.835Z,27.75
2022-09-11T00:54:49.715Z,21.60
2022-09-11T00:59:54.843Z,27.05
2022-09-11T01:04:58.574Z,22.10
2022-09-11T01:10:00.885Z,27.25
2022-09-11T01:15:14.850Z,29.08
2022-09-11T01:20:43.566Z,20.92
2022-09-11T01:26:07.691Z,24.85
2022-09-11T01:31:13.119Z,25.88
2022-09-11T01:36:23.855Z,26.45
2022-09-11T01:41:31.037Z,26.55
2022-09-11T01:46:41.175Z,28.38
2022-09-11T01:51:43.804Z,30.27
2022-09-11T01:56:51.372Z,36.65
2022-09-11T02:01:58.139Z,36.45
2022-09-11T02:07:13.844Z,32.88
2022-09-11T02:12:18.401Z,35.03
2022-09-11T02:17:26.810Z,34.47
2022-09-11T02:22:31.059Z,35.42
2022-09-11T02:27:37.104Z,32.58
2022-09-11T02:32:41.244Z,27.92
2022-09-11T02:37:57.464Z,28.98
2022-09-11T02:43:33.814Z,31.00
2022-09-11T02:48:51.972Z,31.73
2022-09-11T02:54:18.145Z,30.67
2022-09-11T03:00:00.381Z,34.60
2022-09-11T03:05:03.339Z,34.83
2022-09-11T03:10:06.550Z,34.38
2022-09-11T03:15:12.893Z,35.28
2022-09-11T03:20:18.081Z,32.33
2022-09-11T03:25:28.373Z,28.67
2022-09-11T03:30:33.365Z,23.90
2022-09-11T03:35:36.258Z,22.08
2022-09-11T03:40:39.346Z,21.33
2022-09-11T03:45:41.845Z,22.88
2022-09-11T03:50:48.564Z,23.05
2022-09-11T03:55:51.153Z,27.90
2022-09-11T04:00:53.726Z,29.63
2022-09-11T04:05:59.231Z,26.42
2022-09-11T04:11:06.829Z,28.77
2022-09-11T04:16:14.711Z,24.38
2022-09-11T04:21:19.361Z,22.57
2022-09-11T04:26:26.259Z,25.85
2022-09-11T04:31:36.251Z,24.42
2022-09-11T04:36:39.200Z,28.50
2022-09-11T04:41:45.756Z,22.75
2022-09-11T04:46:48.439Z,19.92
2022-09-11T04:51:51.056Z,21.00
2022-09-11T04:56:56.504Z,20.88
2022-09-11T05:01:59.160Z,19.95
2022-09-11T05:07:03.475Z,19.02
2022-09-11T05:12:06.428Z,17.55
2022-09-11T05:17:13.814Z,18.90
2022-09-11T05:22:18.283Z,20.55
2022-09-11T05:27:27.073Z,18.75
2022-09-11T05:32:30.596Z,19.63
2022-09-11T05:37:32.942Z,20.73
2022-09-11T05:42:35.488Z,23.65
2022-09-11T05:47:37.867Z,20.63
2022-09-11T05:52:41.073Z,19.52
2022-09-11T05:57:43.828Z,17.40
2022-09-11T06:02:51.270Z,19.20
2022-09-11T06:07:54.481Z,22.48
2022-09-11T06:12:57.295Z,22.30
2022-09-11T06:17:59.964Z,20.60
2022-09-11T06:23:06.055Z,19.23
2022-09-11T06:28:11.627Z,18.83
2022-09-11T06:33:15.505Z,18.20
2022-09-11T06:38:19.605Z,18.92
2022-09-11T06:43:22.222Z,17.08
2022-09-11T06:48:24.661Z,18.77
2022-09-11T06:53:27.212Z,17.92
2022-09-11T06:58:31.113Z,17.85
2022-09-11T07:03:33.874Z,15.75
2022-09-11T07:08:39.262Z,15.77
2022-09-11T07:13:42.182Z,17.77
2022-09-11T07:18:46.125Z,16.00
2022-09-11T07:23:57.049Z,13.90
2022-09-11T07:29:00.212Z,15.93
2022-09-11T07:34:02.993Z,18.02
2022-09-11T07:39:06.402Z,13.52
2022-09-11T07:44:20.750Z,13.85
2022-09-11T07:49:23.190Z,15.10
2022-09-11T07:54:29.189Z,13.13
2022-09-11T07:59:32.287Z,11.57
2022-09-11T08:04:35.078Z,14.38
2022-09-11T08:09:37.705Z,9.93
2022-09-11T08:14:40.823Z,7.70
2022-09-11T08:19:52.466Z,13.75
2022-09-11T08:24:55.462Z,11.57
2022-09-11T08:29:57.889Z,12.57
2022-09-11T08:35:00.970Z,10.45
2022-09-11T08:40:05.427Z,13.95
2022-09-11T08:45:15.066Z,11.95
2022-09-11T08:50:26.887Z,13.18
2022-09-11T08:55:37.004Z,9.50
2022-09-11T09:00:47.828Z,6.88
2022-09-11T09:05:57.267Z,8.77
2022-09-11T09:11:06.206Z,7.25
2022-09-11T09:16:32.076Z,8.18
2022-09-11T09:21:46.898Z,7.72
2022-09-11T09:26:56.166Z,8.77
2022-09-11T09:32:06.530Z,8.13
2022-09-11T09:37:18.390Z,5.85
2022-09-11T09:42:49.858Z,8.43
2022-09-11T09:47:52.276Z,3.85
2022-09-11T09:52:59.578Z,5.22
2022-09-11T09:58:02.674Z,8.07
2022-09-11T10:03:34.485Z,7.97
2022-09-11T10:08:38.079Z,5.78
2022-09-11T10:13:44.430Z,5.22
2022-09-11T10:18:47.310Z,3.45
2022-09-11T10:23:57.185Z,5.07
2022-09-11T10:29:05.861Z,4.32
2022-09-11T10:34:15.592Z,3.95
2022-09-11T10:39:19.603Z,7.10
2022-09-11T10:44:23.103Z,6.72
2022-09-11T10:49:25.485Z,6.50
2022-09-11T10:54:50.759Z,4.40
2022-09-11T11:00:09.879Z,4.20
2022-09-11T11:05:20.951Z,4.53
2022-09-11T11:10:41.649Z,4.07
2022-09-11T11:15:52.971Z,4.32
2022-09-11T11:21:02.142Z,1.75
2022-09-11T11:26:25.481Z,2.38
2022-09-11T11:31:44.454Z,4.93
2022-09-11T11:37:18.388Z,2.95
2022-09-11T11:42:27.657Z,6.78
2022-09-11T11:47:33.272Z,3.30
2022-09-11T11:52:39.524Z,3.50
2022-09-11T11:57:45.207Z,3.63
2022-09-11T12:03:10.248Z,4.93
2022-09-11T12:08:16.792Z,5.75
2022-09-11T12:13:20.747Z,2.05
2022-09-11T12:18:26.187Z,2.58
2022-09-11T12:23:31.339Z,4.63
2022-09-11T12:28:35.892Z,2.25
2022-09-11T12:33:47.328Z,5.03
2022-09-11T12:38:52.034Z,3.85
2022-09-11T12:43:55.162Z,3.83
2022-09-11T12:49:21.102Z,2.55
2022-09-11T12:54:28.799Z,11.98
2022-09-11T12:59:41.237Z,2.08
2022-09-11T13:04:44.240Z,2.08
2022-09-11T13:09:50.204Z,2.70
2022-09-11T13:14:59.491Z,4.63
2022-09-11T13:20:08.714Z,3.80
2022-09-11T13:25:14.015Z,4.90
2022-09-11T13:30:19.474Z,3.97
2022-09-11T13:35:27.262Z,4.28
2022-09-11T13:40:59.538Z,4.18
2022-09-11T13:46:16.902Z,3.35
2022-09-11T13:51:26.749Z,2.22
2022-09-11T13:56:41.489Z,1.77
2022-09-11T14:01:56.160Z,2.10
2022-09-11T14:06:58.588Z,3.45
2022-09-11T14:12:03.449Z,3.90
2022-09-11T14:17:06.531Z,3.03
2022-09-11T14:22:27.495Z,4.63
2022-09-11T14:27:32.990Z,1.30
2022-09-11T14:32:37.355Z,3.45
2022-09-11T14:37:45.850Z,2.88
2022-09-11T14:42:49.278Z,4.78
2022-09-11T14:47:51.851Z,4.35
2022-09-11T14:52:54.144Z,2.85
2022-09-11T14:57:57.275Z,3.47
2022-09-11T15:03:00.952Z,4.60
2022-09-11T15:08:03.683Z,1.83
2022-09-11T15:13:06.021Z,2.67
2022-09-11T15:18:09.686Z,1.90
2022-09-11T15:23:12.030Z,4.82
2022-09-11T15:28:14.788Z,7.03
2022-09-11T15:33:17.138Z,5.30
2022-09-11T15:38:20.894Z,4.88
2022-09-11T15:43:37.833Z,4.40
2022-09-11T15:48:40.543Z,4.80
2022-09-11T15:53:44.867Z,2.75
2022-09-11T15:58:48.252Z,4.20
2022-09-11T16:03:54.842Z,4.45
2022-09-11T16:09:05.308Z,3.57
2022-09-11T16:14:08.564Z,9.77
2022-09-11T16:19:10.819Z,6.00
2022-09-11T16:24:15.899Z,5.53
2022-09-11T16:29:18.238Z,3.95
2022-09-11T16:34:20.603Z,7.95
2022-09-11T16:39:23.168Z,9.85
2022-09-11T16:44:27.704Z,11.50
2022-09-11T16:49:37.209Z,22.92
2022-09-11T16:54:49.036Z,9.10
2022-09-11T16:59:51.499Z,6.28
2022-09-11T17:04:54.180Z,5.18
2022-09-11T17:09:56.488Z,5.72
2022-09-11T17:14:58.834Z,9.18
2022-09-11T17:20:01.267Z,4.25
2022-09-11T17:25:04.571Z,5.30
2022-09-11T17:30:07.469Z,3.20
2022-09-11T17:35:11.075Z,4.43
2022-09-11T17:40:14.470Z,7.65
2022-09-11T17:45:17.069Z,3.63
2022-09-11T17:50:19.453Z,5.97
2022-09-11T17:55:21.958Z,6.75
2022-09-11T18:00:24.390Z,5.72
2022-09-11T18:05:28.845Z,5.35
2022-09-11T18:10:31.898Z,6.25
2022-09-11T18:15:34.302Z,7.22
2022-09-11T18:20:37.001Z,5.00
2022-09-11T18:25:40.766Z,3.13
2022-09-11T18:30:43.191Z,5.85
2022-09-11T18:35:46.717Z,5.72
2022-09-11T18:40:56.248Z,4.13
2022-09-11T18:46:03.655Z,3.63
2022-09-11T18:51:09.794Z,5.28
2022-09-11T18:56:12.323Z,3.95
2022-09-11T19:01:20.910Z,4.80
2022-09-11T19:06:25.321Z,5.03
2022-09-11T19:11:29.988Z,5.70
2022-09-11T19:16:32.527Z,3.38
2022-09-11T19:21:35.210Z,5.93
2022-09-11T19:26:39.848Z,2.80
2022-09-11T19:31:42.506Z,6.45
2022-09-11T19:36:45.283Z,4.78
2022-09-11T19:41:47.655Z,5.30
2022-09-11T19:46:53.548Z,5.63
2022-09-11T19:51:57.116Z,5.55
2022-09-11T19:57:00.297Z,5.60
2022-09-11T20:02:02.873Z,5.85
2022-09-11T20:07:05.584Z,4.07
2022-09-11T20:12:07.997Z,8.52
2022-09-11T20:17:10.531Z,4.32
2022-09-11T20:22:12.853Z,6.18
2022-09-11T20:27:15.242Z,8.13
2022-09-11T20:32:18.232Z,5.57
2022-09-11T20:37:20.751Z,5.50
2022-09-11T20:42:23.450Z,4.95
2022-09-11T20:47:25.881Z,5.03
2022-09-11T20:52:28.250Z,5.28
2022-09-11T20:57:31.639Z,5.95
2022-09-11T21:02:33.972Z,6.35
2022-09-11T21:07:36.234Z,6.55
2022-09-11T21:12:38.606Z,5.82
2022-09-11T21:17:40.975Z,6.25
2022-09-11T21:22:43.300Z,4.38
2022-09-11T21:27:48.436Z,4.45
2022-09-11T21:32:50.782Z,5.75
2022-09-11T21:37:53.115Z,7.90
2022-09-11T21:42:55.432Z,7.15
2022-09-11T21:47:57.772Z,5.63
2022-09-11T21:53:00.113Z,7.75
2022-09-11T21:58:02.401Z,4.32
2022-09-11T22:03:05.404Z,5.65
2022-09-11T22:08:07.787Z,7.18
2022-09-11T22:13:10.765Z,6.22
2022-09-11T22:18:13.271Z,5.28
2022-09-11T22:23:21.991Z,7.78
2022-09-11T22:28:24.283Z,6.55
2022-09-11T22:33:26.748Z,5.20
2022-09-11T22:38:29.031Z,6.63
2022-09-11T22:43:31.609Z,7.93
2022-09-11T22:48:34.303Z,6.32
2022-09-11T22:53:39.542Z,5.57
2022-09-11T22:58:42.000Z,8.02
2022-09-11T23:03:44.440Z,7.25
2022-09-11T23:08:47.793Z,5.97
2022-09-11T23:13:50.898Z,7.03
2022-09-11T23:18:57.975Z,5.65
2022-09-11T23:24:01.049Z,6.22
2022-09-11T23:29:03.334Z,9.52
2022-09-11T23:34:08.096Z,8.23
2022-09-11T23:39:10.643Z,7.35
2022-09-11T23:44:13.186Z,6.70
2022-09-11T23:49:16.116Z,7.40
2022-09-11T23:54:18.621Z,6.75
2022-09-11T23:59:21.010Z,9.82
